Hlavní strana
METAR-TAF:

METAR-TAF

Letiště :

Umeå, Švédsko

zeměpisná šířka: 63-48N, zeměpisná délka: 020-17E, výška: 7 m

Aktuální stav počasí

Zpráva byla vytvořena před 39 minutami, v 17:20 UTC
Západojihozápadní vítr 6 kt
Teplota 7°C
Vlhkost vzduchu 70%
Tlak 1011 hPa
Viditelnost 10 km a více
Žádná oblačnost pod 1500 m, nevyskytují se cumulonimby.

METAR: ESNU 181720Z 24006KT CAVOK 07/02 Q1011

Čas: 19:59 (17:59 UTC)

Předpověď počasí

Zpráva byla vytvořena před 29 minutami, v 17:30 UTC
Předpověď platná od 18 v 18 UTC do 19 v 03 UTC
Západní vítr 9 kt
Viditelnost 10 km a více
Žádná oblačnost pod 1500 m, nevyskytují se cumulonimby.

TAF: ESNU 181730Z 1818/1903 27009KT CAVOK

Stav a předpovědi počasí z více než 4 000 letišť (zprávy METAR a TAF).

Červené a žluté tečky na mapě představují dostupné meteorologické stanice.

Když kurzor umístíte na tečku, zobrazí se název stanice.

Pak kliknutím zobrazíte stav a předpověď počasí.

Chcete-li změnit mapu, kliknutím na zelené tlačítko se znaménkem +mapu přiblížíte, kliknutím na zelené tlačítko se znaménkem – mapu oddálíte a kliknutím na zelené šipky přejdete na sousední mapy.


METAR-TAF: